M/V Cadenza — WDD3063 — position and weather

sailwx.info

Track history (hours):
 
Tides and Currents Weather Stations Pressure Air Temp Water Temp Dewpoint Dewpoint Depression Visibility Wind Speed Wind Dir Waves Ship Positions

M/V Cadenza

Owner: Fulton, David L, Raleigh, NC. More information available from US FCC via Universal Licensing System.

Last reported at 2017-Oct-05 22:35 UTC. Time now 2017-Oct-16 22:42 UTC.
Position N 48°45' W 122°31'.
Warning: this ship's position is 11 days out of date.

Length 25 m; draft 2.6 m.

Type: Pleasure craft. MMSI: 367123350.

Date/timePositionNaut miles runAvg speedWind from/ knotsBaromVisibWave heightAir tempDewpointWater temp
2017-Oct-05 22:35N 48°45' W 122°31'0 6.4
2017-Oct-05 22:30N 48°45' W 122°31'5 9.0
2017-Oct-05 22:00N 48°41' W 122°35'4 7.9
2017-Oct-05 21:30N 48°38' W 122°39'4 8.5
2017-Oct-05 21:00N 48°37' W 122°45'4 7.3
2017-Oct-05 20:30N 48°37' W 122°50'2 4.9
2017-Oct-05 20:00N 48°39' W 122°52'0 0.0
2017-Oct-05 19:30N 48°39' W 122°52'0 0.0
2017-Oct-05 18:59N 48°39' W 122°52'0 0.5
2017-Oct-05 18:30N 48°39' W 122°52'1 1.6
2017-Oct-05 18:00N 48°38' W 122°52'2 4.6
2017-Oct-05 17:30N 48°36' W 122°50'611.0
2017-Oct-05 17:00N 48°38' W 122°42'11 7.0
2017-Oct-05 15:29N 48°45' W 122°31'  
Track history (hours):
 
Tides and Currents Weather Stations Pressure Air Temp Water Temp Dewpoint Dewpoint Depression Visibility Wind Speed Wind Dir Waves Ship Positions

M/V Cadenza

Owner: Fulton, David L, Raleigh, NC. More information available from US FCC via Universal Licensing System.

Last reported at 2017-Oct-05 22:35 UTC. Time now 2017-Oct-16 22:42 UTC.
Position N 48°45' W 122°31'.
Warning: this ship's position is 11 days out of date.

Length 25 m; draft 2.6 m.

Type: Pleasure craft. MMSI: 367123350.

Date/timePositionNaut miles runAvg speedWind from/ knotsBaromVisibWave heightAir tempDewpointWater temp
2017-Oct-05 22:35N 48°45' W 122°31'0 6.4
2017-Oct-05 22:30N 48°45' W 122°31'5 9.0
2017-Oct-05 22:00N 48°41' W 122°35'4 7.9
2017-Oct-05 21:30N 48°38' W 122°39'4 8.5
2017-Oct-05 21:00N 48°37' W 122°45'4 7.3
2017-Oct-05 20:30N 48°37' W 122°50'2 4.9
2017-Oct-05 20:00N 48°39' W 122°52'0 0.0
2017-Oct-05 19:30N 48°39' W 122°52'0 0.0
2017-Oct-05 18:59N 48°39' W 122°52'0 0.5
2017-Oct-05 18:30N 48°39' W 122°52'1 1.6
2017-Oct-05 18:00N 48°38' W 122°52'2 4.6
2017-Oct-05 17:30N 48°36' W 122°50'611.0
2017-Oct-05 17:00N 48°38' W 122°42'11 7.0
2017-Oct-05 15:29N 48°45' W 122°31'  

Dump ship's entire track history